Time;durP1;ratioP1;P1;durP2;ratioP2;P2;SDS_P1;SDS_P2;PMS_P1;PMS_P2;Temp;Humidity;BMP_temperature;BMP_pressure;BME280_temperature;BME280_humidity;BME280_pressure;Samples;Min_cycle;Max_cycle;Signal;HPM_P1;HPM_P2
2024/04/14 00:01:44;;;;;;;;;;;;;;;22.61;42.90;101425.45;103884;1286;61479;-78
2024/04/14 00:04:09;;;;;;;;;;;;;;;22.61;42.94;101426.16;103677;1292;61454;-78
2024/04/14 00:06:35;;;;;;;;;;;;;;;22.61;42.97;101424.55;103618;1286;61425;-78
2024/04/14 00:09:00;;;;;;;;;;;;;;;22.61;42.94;101425.09;103717;1292;61377;-77
2024/04/14 00:11:26;;;;;;;;;;;;;;;22.61;42.90;101423.66;103706;1286;61388;-78
2024/04/14 00:13:51;;;;;;;;;;;;;;;22.61;42.95;101425.10;103651;1292;61380;-78
2024/04/14 00:16:18;;;;;;;;;;;;;;;22.60;42.94;101425.14;103527;1295;62289;-78
2024/04/14 00:18:44;;;;;;;;;;;;;;;22.60;43.03;101427.99;103653;1291;61396;-78
2024/04/14 00:21:10;;;;;;;;;;;;;;;22.60;42.99;101429.80;103795;1292;61375;-78
2024/04/14 00:23:36;;;;;;;;;;;;;;;22.60;43.09;101431.42;103740;1286;61345;-78
2024/04/14 00:26:03;;;;;;;;;;;;;;;22.60;43.08;101429.97;103723;1289;61375;-78
2024/04/14 00:28:29;;;;;;;;;;;;;;;22.60;43.10;101430.54;103710;1292;61381;-78
2024/04/14 00:30:54;;;;;;;;;;;;;;;22.60;43.05;101431.08;103620;1286;62143;-78
2024/04/14 00:33:20;;;;;;;;;;;;;;;22.60;43.05;101428.94;103763;1291;61276;-78
2024/04/14 00:35:45;;;;;;;;;;;;;;;22.60;43.02;101432.33;103720;1292;61390;-78
2024/04/14 00:38:11;;;;;;;;;;;;;;;22.60;43.00;101435.94;103720;1287;61263;-78
2024/04/14 00:40:36;;;;;;;;;;;;;;;22.60;43.12;101433.77;103548;1292;61426;-78
2024/04/14 00:43:02;;;;;;;;;;;;;;;22.60;43.08;101437.70;103738;1286;61433;-78
2024/04/14 00:45:27;;;;;;;;;;;;;;;22.60;43.07;101437.73;103740;1286;61292;-78
2024/04/14 00:47:54;;;;;;;;;;;;;;;22.60;43.19;101446.68;103712;1286;61479;-77
2024/04/14 00:50:19;;;;;;;;;;;;;;;22.60;43.23;101446.00;103635;1286;61394;-79
2024/04/14 00:52:45;;;;;;;;;;;;;;;22.59;43.14;101445.98;103638;1292;61463;-78
2024/04/14 00:55:11;;;;;;;;;;;;;;;22.60;43.20;101444.92;103756;1291;61843;-77
2024/04/14 00:57:36;;;;;;;;;;;;;;;22.59;43.11;101444.04;103777;1289;61317;-78
2024/04/14 01:00:02;;;;;;;;;;;;;;;22.59;43.13;101438.83;103608;1286;61349;-78
2024/04/14 01:02:28;;;;;;;;;;;;;;;22.59;43.15;101444.40;103694;1291;61292;-78
2024/04/14 01:04:53;;;;;;;;;;;;;;;22.59;43.19;101438.88;103672;1291;62456;-78
2024/04/14 01:07:19;;;;;;;;;;;;;;;22.59;43.32;101440.31;103717;1286;62402;-78
2024/04/14 01:09:45;;;;;;;;;;;;;;;22.59;43.19;101439.05;103739;1286;61283;-78
2024/04/14 01:12:10;;;;;;;;;;;;;;;22.59;43.09;101436.73;103709;1287;62144;-77
2024/04/14 01:14:39;;;;;;;;;;;;;;;22.59;43.20;101441.76;103683;1286;61377;-79
2024/04/14 01:17:06;;;;;;;;;;;;;;;22.58;43.17;101435.14;103769;1286;74446;-78
2024/04/14 01:19:32;;;;;;;;;;;;;;;22.58;43.12;101433.70;103702;1286;61339;-78
2024/04/14 01:21:58;;;;;;;;;;;;;;;22.58;43.26;101433.73;103703;1290;61384;-78
2024/04/14 01:24:23;;;;;;;;;;;;;;;22.58;43.28;101434.23;103703;1292;61397;-78
2024/04/14 01:26:49;;;;;;;;;;;;;;;22.58;43.24;101434.45;103267;1294;61529;-79
2024/04/14 01:29:15;;;;;;;;;;;;;;;22.58;43.31;101432.63;103677;1286;63121;-77
2024/04/14 01:31:40;;;;;;;;;;;;;;;22.58;43.19;101431.92;103952;1291;61300;-78
2024/04/14 01:34:06;;;;;;;;;;;;;;;22.58;43.27;101433.72;103718;1286;62562;-79
2024/04/14 01:36:32;;;;;;;;;;;;;;;22.58;43.22;101428.73;103790;1289;61305;-78
2024/04/14 01:38:59;;;;;;;;;;;;;;;22.58;43.19;101431.02;103596;1292;61412;-78
2024/04/14 01:41:25;;;;;;;;;;;;;;;22.58;43.31;101427.83;103802;1285;61234;-78
2024/04/14 01:43:50;;;;;;;;;;;;;;;22.58;43.29;101426.70;103721;1285;61371;-78
2024/04/14 01:46:16;;;;;;;;;;;;;;;22.58;43.23;101424.77;103688;1286;61848;-77
2024/04/14 01:48:41;;;;;;;;;;;;;;;22.58;43.26;101423.17;103429;1292;61426;-78
2024/04/14 01:51:07;;;;;;;;;;;;;;;22.57;43.24;101423.71;103744;1287;61442;-78
2024/04/14 01:53:33;;;;;;;;;;;;;;;22.58;43.29;101426.04;103798;1289;61404;-78
2024/04/14 01:55:59;;;;;;;;;;;;;;;22.58;43.32;101426.40;103669;1286;61438;-79
2024/04/14 01:58:26;;;;;;;;;;;;;;;22.57;43.29;101423.55;103735;1290;61502;-78
2024/04/14 02:00:51;;;;;;;;;;;;;;;22.57;43.29;101428.04;103726;1287;61348;-78
2024/04/14 02:03:17;;;;;;;;;;;;;;;22.57;43.13;101423.54;103635;1290;61332;-79
2024/04/14 02:05:42;;;;;;;;;;;;;;;22.57;43.25;101424.48;103692;1292;61359;-79
2024/04/14 02:08:08;;;;;;;;;;;;;;;22.57;43.17;101425.02;103801;1286;61288;-78
2024/04/14 02:10:42;;;;;;;;;;;;;;;22.57;43.26;101427.88;103716;1286;61381;-78
2024/04/14 02:13:08;;;;;;;;;;;;;;;22.57;43.34;101428.25;103654;1287;75498;-78
2024/04/14 02:15:33;;;;;;;;;;;;;;;22.57;43.27;101435.05;103927;1286;61314;-78
2024/04/14 02:17:59;;;;;;;;;;;;;;;22.57;43.18;101431.09;103690;1286;61372;-78
2024/04/14 02:20:24;;;;;;;;;;;;;;;22.57;43.26;101439.52;103736;1286;61538;-78
2024/04/14 02:22:50;;;;;;;;;;;;;;;22.57;43.19;101442.93;103755;1286;61435;-78
2024/04/14 02:25:16;;;;;;;;;;;;;;;22.57;43.25;101441.67;102697;1286;1069030;-78
2024/04/14 02:27:41;;;;;;;;;;;;;;;22.57;43.21;101440.98;103575;1292;62645;-77
2024/04/14 02:30:07;;;;;;;;;;;;;;;22.57;43.31;101438.45;103700;1286;61383;-78
2024/04/14 02:32:32;;;;;;;;;;;;;;;22.57;43.22;101440.98;103700;1290;61841;-78
2024/04/14 02:34:58;;;;;;;;;;;;;;;22.56;43.27;101439.40;103846;1290;61407;-79
2024/04/14 02:37:24;;;;;;;;;;;;;;;22.56;43.28;101443.20;103402;1286;73677;-78
2024/04/14 02:39:49;;;;;;;;;;;;;;;22.56;43.22;101444.98;103639;1289;61400;-78
2024/04/14 02:42:15;;;;;;;;;;;;;;;22.56;43.24;101444.58;103765;1286;61410;-78
2024/04/14 02:44:40;;;;;;;;;;;;;;;22.56;43.29;101444.98;103729;1292;61444;-77
2024/04/14 02:47:06;;;;;;;;;;;;;;;22.56;43.27;101445.52;103632;1286;61380;-78
2024/04/14 02:49:31;;;;;;;;;;;;;;;22.56;43.20;101449.33;103764;1286;74424;-78
2024/04/14 02:51:57;;;;;;;;;;;;;;;22.56;43.30;101448.42;103764;1285;61298;-78
2024/04/14 02:54:23;;;;;;;;;;;;;;;22.56;43.24;101451.66;103746;1286;61371;-78
2024/04/14 02:56:48;;;;;;;;;;;;;;;22.56;43.23;101447.52;103708;1286;61336;-77
2024/04/14 02:59:14;;;;;;;;;;;;;;;22.55;43.35;101445.75;103638;1286;61426;-78
2024/04/14 03:01:40;;;;;;;;;;;;;;;22.56;43.15;101441.98;103684;1288;61382;-78
2024/04/14 03:04:06;;;;;;;;;;;;;;;22.55;43.22;101436.77;103715;1291;62429;-78
2024/04/14 03:06:32;;;;;;;;;;;;;;;22.55;43.24;101440.91;103729;1287;61342;-78
2024/04/14 03:08:57;;;;;;;;;;;;;;;22.55;43.22;101444.67;103685;1290;62073;-78
2024/04/14 03:11:23;;;;;;;;;;;;;;;22.55;43.27;101449.19;103864;1286;61430;-78
2024/04/14 03:13:48;;;;;;;;;;;;;;;22.55;43.17;101456.90;103686;1291;61364;-78
2024/04/14 03:16:14;;;;;;;;;;;;;;;22.55;43.27;101459.93;103785;1286;61374;-78
2024/04/14 03:18:39;;;;;;;;;;;;;;;22.55;43.24;101459.08;103711;1289;61557;-78
2024/04/14 03:21:05;;;;;;;;;;;;;;;22.55;43.14;101457.45;103724;1286;61390;-78
2024/04/14 03:23:31;;;;;;;;;;;;;;;22.54;43.30;101456.93;103667;1286;61397;-78
2024/04/14 03:25:57;;;;;;;;;;;;;;;22.54;43.13;101456.39;103647;1288;61788;-78
2024/04/14 03:28:26;;;;;;;;;;;;;;;22.54;43.26;101458.73;103686;1286;62375;-79
2024/04/14 03:31:02;;;;;;;;;;;;;;;22.54;43.14;101464.65;103789;1285;72379;-79
2024/04/14 03:33:28;;;;;;;;;;;;;;;22.54;43.18;101466.10;103727;1286;74285;-79
2024/04/14 03:36:01;;;;;;;;;;;;;;;22.54;43.28;101466.83;103809;1285;61371;-79
2024/04/14 03:38:26;;;;;;;;;;;;;;;22.55;43.27;101469.48;103492;1286;61253;-78
2024/04/14 03:40:52;;;;;;;;;;;;;;;22.54;43.21;101472.18;103593;1292;61463;-79
2024/04/14 03:43:18;;;;;;;;;;;;;;;22.54;43.22;101474.54;103756;1290;62453;-79
2024/04/14 03:45:44;;;;;;;;;;;;;;;22.54;43.21;101475.08;103799;1286;61329;-78
2024/04/14 03:48:09;;;;;;;;;;;;;;;22.53;43.23;101473.50;103685;1286;61454;-78
2024/04/14 03:50:35;;;;;;;;;;;;;;;22.54;43.26;101475.10;103807;1286;61905;-78
2024/04/14 03:53:00;;;;;;;;;;;;;;;22.54;43.27;101480.13;103648;1286;61287;-78
2024/04/14 03:55:26;;;;;;;;;;;;;;;22.54;43.24;101479.23;103805;1292;61400;-78
2024/04/14 03:57:51;;;;;;;;;;;;;;;22.54;43.20;101481.70;103735;1290;61320;-78
2024/04/14 04:00:17;;;;;;;;;;;;;;;22.54;43.37;101483.15;103709;1286;62006;-78
2024/04/14 04:02:42;;;;;;;;;;;;;;;22.53;43.24;101481.05;103793;1290;61342;-77
2024/04/14 04:05:08;;;;;;;;;;;;;;;22.53;43.32;101486.46;103816;1286;61907;-78
2024/04/14 04:07:34;;;;;;;;;;;;;;;22.53;43.31;101487.89;103685;1286;61371;-78
2024/04/14 04:10:00;;;;;;;;;;;;;;;22.53;43.25;101495.27;103871;1286;61511;-78
2024/04/14 04:12:26;;;;;;;;;;;;;;;22.53;43.27;101498.30;103701;1286;61298;-79
2024/04/14 04:14:52;;;;;;;;;;;;;;;22.53;43.24;101498.80;103622;1287;61752;-78
2024/04/14 04:17:18;;;;;;;;;;;;;;;22.52;43.31;101500.84;103683;1289;61816;-79
2024/04/14 04:19:43;;;;;;;;;;;;;;;22.53;43.25;101504.05;103777;1286;61429;-79
2024/04/14 04:22:09;;;;;;;;;;;;;;;22.52;43.16;101503.36;103711;1286;62348;-78
2024/04/14 04:24:34;;;;;;;;;;;;;;;22.52;43.17;101504.44;103795;1289;61351;-79
2024/04/14 04:27:00;;;;;;;;;;;;;;;22.52;43.12;101509.30;103703;1286;61380;-79
2024/04/14 04:29:27;;;;;;;;;;;;;;;22.52;43.25;101511.81;103710;1286;61367;-79
2024/04/14 04:31:54;;;;;;;;;;;;;;;22.52;43.21;101515.03;103771;1285;61377;-79
2024/04/14 04:34:22;;;;;;;;;;;;;;;22.51;43.14;101516.35;103855;1286;61399;-77
2024/04/14 04:36:50;;;;;;;;;;;;;;;22.51;43.11;101512.20;103786;1286;61306;-76
2024/04/14 04:39:16;;;;;;;;;;;;;;;22.51;43.34;101513.85;103787;1288;73261;-77
2024/04/14 04:41:41;;;;;;;;;;;;;;;22.51;43.19;101506.13;103586;1286;62240;-78
2024/04/14 04:44:07;;;;;;;;;;;;;;;22.51;43.30;101509.18;103712;1288;61401;-78
2024/04/14 04:46:33;;;;;;;;;;;;;;;22.51;43.29;101508.83;103579;1291;61349;-78
2024/04/14 04:48:59;;;;;;;;;;;;;;;22.50;43.12;101511.35;103745;1286;61470;-78
2024/04/14 04:51:28;;;;;;;;;;;;;;;22.50;43.19;101514.42;103614;1286;62029;-79
2024/04/14 04:53:53;;;;;;;;;;;;;;;22.50;43.24;101514.06;103521;1286;61279;-79
2024/04/14 04:56:19;;;;;;;;;;;;;;;22.50;43.10;101512.28;103657;1290;61752;-79
2024/04/14 04:58:44;;;;;;;;;;;;;;;22.50;43.21;101517.30;103874;1287;61375;-79
2024/04/14 05:01:10;;;;;;;;;;;;;;;22.50;43.24;101518.90;103676;1290;61406;-79
2024/04/14 05:03:37;;;;;;;;;;;;;;;22.50;43.14;101516.06;103728;1286;61293;-79
2024/04/14 05:06:03;;;;;;;;;;;;;;;22.50;43.21;101521.48;103704;1286;61205;-79
2024/04/14 05:08:28;;;;;;;;;;;;;;;22.50;43.11;101520.20;103727;1286;61385;-78
2024/04/14 05:10:55;;;;;;;;;;;;;;;22.50;43.16;101522.35;103696;1286;72560;-78
2024/04/14 05:13:21;;;;;;;;;;;;;;;22.49;43.22;101530.29;103809;1286;73382;-79
2024/04/14 05:15:47;;;;;;;;;;;;;;;22.50;43.30;101529.33;103748;1286;61368;-78
2024/04/14 05:18:12;;;;;;;;;;;;;;;22.51;43.36;101534.86;103690;1286;61368;-78
2024/04/14 05:20:38;;;;;;;;;;;;;;;22.50;43.16;101534.69;103587;1291;61829;-78
2024/04/14 05:23:04;;;;;;;;;;;;;;;22.51;43.25;101534.30;103627;1286;61308;-77
2024/04/14 05:25:30;;;;;;;;;;;;;;;22.52;43.15;101537.88;103807;1286;61355;-78
2024/04/14 05:27:56;;;;;;;;;;;;;;;22.52;43.18;101538.90;103572;1286;61471;-78
2024/04/14 05:30:21;;;;;;;;;;;;;;;22.52;43.17;101541.08;103916;1285;61368;-78
2024/04/14 05:32:47;;;;;;;;;;;;;;;22.52;43.19;101539.96;103702;1286;61381;-78
2024/04/14 05:35:13;;;;;;;;;;;;;;;22.52;43.08;101538.70;103684;1286;61471;-78
2024/04/14 05:37:39;;;;;;;;;;;;;;;22.53;43.03;101544.73;103912;1286;61349;-78
2024/04/14 05:40:05;;;;;;;;;;;;;;;22.54;43.14;101545.02;103699;1286;61401;-78
2024/04/14 05:42:31;;;;;;;;;;;;;;;22.55;43.08;101547.11;103618;1289;61177;-77
2024/04/14 05:44:56;;;;;;;;;;;;;;;22.55;43.11;101549.95;103706;1286;61511;-78
2024/04/14 05:47:22;;;;;;;;;;;;;;;22.56;43.03;101548.30;103639;1286;74373;-78
2024/04/14 05:49:47;;;;;;;;;;;;;;;22.56;43.05;101546.32;103650;1291;61338;-78
2024/04/14 05:52:13;;;;;;;;;;;;;;;22.57;43.01;101545.52;103820;1286;61490;-78
2024/04/14 05:54:39;;;;;;;;;;;;;;;22.58;43.01;101544.93;103682;1286;61397;-79
2024/04/14 05:57:04;;;;;;;;;;;;;;;22.59;43.09;101546.14;103744;1291;61338;-79
2024/04/14 05:59:30;;;;;;;;;;;;;;;22.59;42.80;101546.30;103751;1286;74479;-79
2024/04/14 06:01:55;;;;;;;;;;;;;;;22.61;42.97;101543.89;103632;1289;61383;-78
2024/04/14 06:04:21;;;;;;;;;;;;;;;22.61;42.92;101539.37;103736;1285;62287;-78
2024/04/14 06:06:49;;;;;;;;;;;;;;;22.62;43.02;101540.05;104020;1286;61975;-78
2024/04/14 06:09:15;;;;;;;;;;;;;;;22.63;42.84;101535.34;103750;1286;61314;-78
2024/04/14 06:11:40;;;;;;;;;;;;;;;22.63;42.92;101534.77;103733;1290;61447;-79
2024/04/14 06:14:07;;;;;;;;;;;;;;;22.64;42.94;101533.62;104005;1286;61361;-78
2024/04/14 06:16:32;;;;;;;;;;;;;;;22.65;42.90;101533.77;103585;1286;61419;-79
2024/04/14 06:18:58;;;;;;;;;;;;;;;22.65;42.86;101530.83;103817;1286;62488;-79
2024/04/14 06:21:23;;;;;;;;;;;;;;;22.67;42.94;101530.59;103784;1286;73784;-78
2024/04/14 06:23:49;;;;;;;;;;;;;;;22.67;42.87;101527.48;103804;1286;61403;-77
2024/04/14 06:26:14;;;;;;;;;;;;;;;22.68;42.77;101527.44;103741;1286;61362;-78
2024/04/14 06:28:40;;;;;;;;;;;;;;;22.69;42.72;101525.40;103787;1286;61385;-77
2024/04/14 06:31:06;;;;;;;;;;;;;;;22.69;42.90;101522.86;103694;1286;61379;-78
2024/04/14 06:33:31;;;;;;;;;;;;;;;22.70;42.83;101526.75;103718;1286;74436;-78
2024/04/14 06:35:57;;;;;;;;;;;;;;;22.71;42.89;101529.23;103731;1290;61377;-78
2024/04/14 06:38:23;;;;;;;;;;;;;;;22.72;42.85;101527.00;103690;1286;61734;-78
2024/04/14 06:40:49;;;;;;;;;;;;;;;22.72;42.82;101525.54;103647;1286;61432;-78
2024/04/14 06:43:16;;;;;;;;;;;;;;;22.72;42.74;101525.52;103742;1291;61397;-78
2024/04/14 06:45:41;;;;;;;;;;;;;;;22.73;42.74;101524.60;103752;1286;61416;-78
2024/04/14 06:48:07;;;;;;;;;;;;;;;22.74;42.76;101519.52;103238;1286;61392;-78
2024/04/14 06:50:33;;;;;;;;;;;;;;;22.74;42.71;101520.55;103708;1286;61447;-79
2024/04/14 06:52:59;;;;;;;;;;;;;;;22.74;42.78;101520.73;103536;1286;71662;-79
2024/04/14 06:55:25;;;;;;;;;;;;;;;22.75;42.61;101521.77;103896;1290;61310;-78
2024/04/14 06:57:51;;;;;;;;;;;;;;;22.76;42.72;101520.27;103727;1286;62533;-78
2024/04/14 07:00:16;;;;;;;;;;;;;;;22.76;42.74;101529.19;103672;1286;62139;-78
2024/04/14 07:02:42;;;;;;;;;;;;;;;22.77;42.53;101529.34;103892;1286;62243;-79
2024/04/14 07:05:07;;;;;;;;;;;;;;;22.78;42.64;101532.35;103769;1286;62129;-78
2024/04/14 07:07:33;;;;;;;;;;;;;;;22.78;42.71;101530.57;103759;1292;62195;-78
2024/04/14 07:09:59;;;;;;;;;;;;;;;22.79;42.63;101531.77;103712;1288;63267;-78
2024/04/14 07:12:25;;;;;;;;;;;;;;;22.79;42.66;101533.73;103610;1286;62171;-78
2024/04/14 07:14:50;;;;;;;;;;;;;;;22.79;42.67;101533.51;103603;1291;62286;-78
2024/04/14 07:17:16;;;;;;;;;;;;;;;22.80;42.67;101533.83;103967;1285;62206;-78
2024/04/14 07:19:41;;;;;;;;;;;;;;;22.80;42.58;101529.15;103819;1286;62120;-78
2024/04/14 07:22:07;;;;;;;;;;;;;;;22.81;42.58;101531.27;103682;1286;62115;-78
2024/04/14 07:24:33;;;;;;;;;;;;;;;22.81;42.75;101532.69;103699;1286;62312;-78
2024/04/14 07:26:58;;;;;;;;;;;;;;;22.81;42.65;101531.75;103704;1286;63241;-78
2024/04/14 07:29:24;;;;;;;;;;;;;;;22.82;42.60;101537.83;103796;1286;62188;-78
2024/04/14 07:31:50;;;;;;;;;;;;;;;22.81;42.57;101536.75;103836;1286;62186;-79
2024/04/14 07:34:16;;;;;;;;;;;;;;;22.82;42.56;101537.09;103705;1286;62234;-78
2024/04/14 07:36:43;;;;;;;;;;;;;;;22.82;42.60;101538.52;103717;1286;62082;-79
2024/04/14 07:39:09;;;;;;;;;;;;;;;22.82;42.53;101539.77;103767;1290;72150;-79
2024/04/14 07:41:34;;;;;;;;;;;;;;;22.83;42.59;101540.28;103708;1286;62225;-79
2024/04/14 07:44:00;;;;;;;;;;;;;;;22.83;42.61;101539.02;103781;1286;62473;-78
2024/04/14 07:46:27;;;;;;;;;;;;;;;22.84;42.60;101536.27;103897;1286;62126;-78
2024/04/14 07:48:53;;;;;;;;;;;;;;;22.83;42.55;101533.23;103682;1286;63411;-78
2024/04/14 07:51:18;;;;;;;;;;;;;;;22.84;42.60;101531.41;103618;1286;62177;-78
2024/04/14 07:53:44;;;;;;;;;;;;;;;22.84;42.47;101528.71;104027;1286;62094;-78
2024/04/14 07:56:10;;;;;;;;;;;;;;;22.84;42.54;101529.77;103630;1286;62676;-78
2024/04/14 07:58:35;;;;;;;;;;;;;;;22.84;42.52;101529.93;103674;1286;62171;-78
2024/04/14 08:01:02;;;;;;;;;;;;;;;22.85;42.56;101531.34;103873;1291;62181;-78
2024/04/14 08:03:28;;;;;;;;;;;;;;;22.85;42.47;101532.77;103737;1285;63418;-78
2024/04/14 08:05:53;;;;;;;;;;;;;;;22.85;42.55;101527.91;103913;1285;62106;-78
2024/04/14 08:08:19;;;;;;;;;;;;;;;22.85;42.47;101521.83;103776;1285;62174;-78
2024/04/14 08:10:44;;;;;;;;;;;;;;;22.85;42.51;101518.77;103746;1290;62181;-78
2024/04/14 08:13:10;;;;;;;;;;;;;;;22.85;42.43;101516.27;103723;1286;62091;-79
2024/04/14 08:15:36;;;;;;;;;;;;;;;22.85;42.48;101516.23;103747;1286;74369;-79
2024/04/14 08:18:02;;;;;;;;;;;;;;;22.85;42.52;101517.30;103796;1286;62197;-79
2024/04/14 08:20:28;;;;;;;;;;;;;;;22.86;42.48;101517.46;103878;1285;62205;-79
2024/04/14 08:22:53;;;;;;;;;;;;;;;22.85;42.48;101515.89;103610;1292;62200;-79
2024/04/14 08:25:19;;;;;;;;;;;;;;;22.85;42.39;101514.99;103707;1291;62123;-79
2024/04/14 08:27:44;;;;;;;;;;;;;;;22.85;42.36;101515.69;103851;1286;62197;-79
2024/04/14 08:30:10;;;;;;;;;;;;;;;22.86;42.38;101513.17;103819;1286;62689;-78
2024/04/14 08:32:36;;;;;;;;;;;;;;;22.85;42.36;101507.98;103820;1286;62197;-78
2024/04/14 08:35:02;;;;;;;;;;;;;;;22.85;42.45;101513.03;103747;1286;62912;-78
2024/04/14 08:37:28;;;;;;;;;;;;;;;22.85;42.35;101510.31;103954;1286;62196;-78
2024/04/14 08:39:53;;;;;;;;;;;;;;;22.86;42.39;101507.42;103757;1286;62191;-78
2024/04/14 08:42:19;;;;;;;;;;;;;;;22.86;42.42;101505.10;103854;1286;62244;-78
2024/04/14 08:44:49;;;;;;;;;;;;;;;22.85;42.35;101502.41;103815;1285;62130;-79
2024/04/14 08:47:18;;;;;;;;;;;;;;;22.86;42.28;101502.90;103759;1285;72369;-78
2024/04/14 08:49:44;;;;;;;;;;;;;;;22.86;42.45;101502.14;103797;1287;75078;-78
2024/04/14 08:52:11;;;;;;;;;;;;;;;22.86;42.41;101498.54;104015;1290;62104;-78
2024/04/14 08:54:36;;;;;;;;;;;;;;;22.87;42.46;101498.15;103733;1286;62260;-78
2024/04/14 08:57:04;;;;;;;;;;;;;;;22.87;42.42;101495.61;103654;1286;62181;-78
2024/04/14 08:59:30;;;;;;;;;;;;;;;22.88;42.36;101494.52;103822;1286;75224;-78
2024/04/14 09:02:01;;;;;;;;;;;;;;;22.88;42.36;101493.22;103641;1291;62533;-78
2024/04/14 09:04:26;;;;;;;;;;;;;;;22.88;42.41;101487.48;103673;1286;62177;-78
2024/04/14 09:06:52;;;;;;;;;;;;;;;22.88;42.40;101486.06;103516;1286;62190;-78
2024/04/14 09:09:18;;;;;;;;;;;;;;;22.89;42.31;101483.88;103634;1291;62153;-78
2024/04/14 09:11:53;;;;;;;;;;;;;;;22.88;42.50;101479.77;103724;1286;62184;-78
2024/04/14 09:14:18;;;;;;;;;;;;;;;22.89;42.31;101480.08;103671;1287;62101;-78
2024/04/14 09:16:44;;;;;;;;;;;;;;;22.89;42.44;101480.80;103981;1286;62229;-78
2024/04/14 09:19:10;;;;;;;;;;;;;;;22.89;42.31;101478.45;103663;1292;62287;-78
2024/04/14 09:21:35;;;;;;;;;;;;;;;22.89;42.36;101474.87;103685;1286;62235;-78
2024/04/14 09:24:01;;;;;;;;;;;;;;;22.89;42.36;101475.04;103951;1286;63156;-78
2024/04/14 09:26:26;;;;;;;;;;;;;;;22.90;42.42;101473.20;103754;1286;62277;-78
2024/04/14 09:29:02;;;;;;;;;;;;;;;22.90;42.38;101472.49;103718;1291;62187;-79
2024/04/14 09:31:28;;;;;;;;;;;;;;;22.90;42.38;101467.98;103688;1286;75541;-79
2024/04/14 09:33:53;;;;;;;;;;;;;;;22.90;42.39;101464.59;103708;1286;62200;-78
2024/04/14 09:36:26;;;;;;;;;;;;;;;22.90;42.43;101464.20;103652;1286;62241;-78
2024/04/14 09:38:52;;;;;;;;;;;;;;;22.91;42.30;101462.18;103720;1290;72459;-79
2024/04/14 09:41:18;;;;;;;;;;;;;;;22.91;42.33;101452.88;103598;1286;63533;-79
2024/04/14 09:43:44;;;;;;;;;;;;;;;22.91;42.25;101455.55;103629;1285;62913;-79
2024/04/14 09:46:10;;;;;;;;;;;;;;;22.91;42.32;101454.64;103681;1286;62139;-79
2024/04/14 09:48:36;;;;;;;;;;;;;;;22.92;42.35;101446.16;103762;1287;62125;-79
2024/04/14 09:51:01;;;;;;;;;;;;;;;22.92;42.26;101449.20;103684;1292;62104;-78
2024/04/14 09:53:31;;;;;;;;;;;;;;;22.92;42.30;101445.97;103760;1286;62247;-79
2024/04/14 09:55:58;;;;;;;;;;;;;;;22.92;42.35;101439.34;103777;1286;62190;-79
2024/04/14 09:58:23;;;;;;;;;;;;;;;22.92;42.34;101442.01;103723;1286;62186;-80
2024/04/14 10:00:49;;;;;;;;;;;;;;;22.92;42.21;101433.20;103972;1291;62213;-80
2024/04/14 10:03:15;;;;;;;;;;;;;;;22.92;42.24;101431.38;104124;1286;62092;-80
2024/04/14 10:05:41;;;;;;;;;;;;;;;22.93;42.33;101431.35;103967;1286;62046;-79
2024/04/14 10:08:07;;;;;;;;;;;;;;;22.93;42.16;101424.89;103876;1286;62165;-79
2024/04/14 10:10:33;;;;;;;;;;;;;;;22.94;42.30;101427.88;103853;1286;62126;-78
2024/04/14 10:12:58;;;;;;;;;;;;;;;22.94;42.25;101425.70;103698;1292;62245;-78
2024/04/14 10:15:24;;;;;;;;;;;;;;;22.94;42.11;101423.90;103701;1286;62155;-78
2024/04/14 10:18:05;;;;;;;;;;;;;;;22.94;42.33;101421.38;103922;1286;62280;-78
2024/04/14 10:20:40;;;;;;;;;;;;;;;22.95;42.28;101419.19;103683;1286;72466;-78
2024/04/14 10:23:06;;;;;;;;;;;;;;;22.95;42.19;101412.88;103677;1286;75391;-78
2024/04/14 10:25:32;;;;;;;;;;;;;;;22.96;42.12;101407.11;103687;1289;62200;-78
2024/04/14 10:27:57;;;;;;;;;;;;;;;22.96;42.07;101409.41;103633;1286;62123;-79
2024/04/14 10:30:24;;;;;;;;;;;;;;;22.96;42.25;101410.18;103771;1286;62197;-78
2024/04/14 10:33:03;;;;;;;;;;;;;;;22.96;42.18;101409.95;103801;1286;62270;-79
2024/04/14 10:35:28;;;;;;;;;;;;;;;22.97;42.17;101404.15;103284;1286;62288;-78
2024/04/14 10:37:54;;;;;;;;;;;;;;;22.97;42.12;101405.60;103799;1286;63316;-78
2024/04/14 10:40:20;;;;;;;;;;;;;;;22.98;42.10;101404.48;103754;1286;62217;-78
2024/04/14 10:42:46;;;;;;;;;;;;;;;22.97;42.23;101397.48;103737;1291;62215;-78
2024/04/14 10:45:11;;;;;;;;;;;;;;;22.98;42.06;101390.83;103782;1286;63381;-78
2024/04/14 10:47:37;;;;;;;;;;;;;;;22.98;42.15;101389.89;103724;1287;62226;-78
2024/04/14 10:50:03;;;;;;;;;;;;;;;22.98;41.99;101386.70;103622;1286;62132;-78
2024/04/14 10:52:28;;;;;;;;;;;;;;;22.98;42.11;101385.41;103717;1286;62101;-78
2024/04/14 10:54:54;;;;;;;;;;;;;;;22.99;42.10;101381.79;103966;1290;62192;-78
2024/04/14 10:57:19;;;;;;;;;;;;;;;22.99;42.03;101372.80;103760;1286;62218;-78
2024/04/14 10:59:45;;;;;;;;;;;;;;;22.99;42.07;101366.48;103744;1286;62060;-78
2024/04/14 11:02:11;;;;;;;;;;;;;;;23.00;42.06;101363.77;103897;1289;62113;-78
2024/04/14 11:04:37;;;;;;;;;;;;;;;23.00;42.03;101365.17;103731;1286;72481;-78
2024/04/14 11:07:03;;;;;;;;;;;;;;;23.00;42.06;101358.54;103681;1285;62251;-78
2024/04/14 11:09:29;;;;;;;;;;;;;;;23.01;42.00;101356.88;103768;1286;62193;-78
2024/04/14 11:11:55;;;;;;;;;;;;;;;23.01;42.00;101356.45;103831;1286;62258;-78
2024/04/14 11:14:21;;;;;;;;;;;;;;;23.01;42.00;101361.13;103736;1286;63380;-78
2024/04/14 11:16:51;;;;;;;;;;;;;;;23.02;42.06;101350.70;103927;1286;62178;-78
2024/04/14 11:19:16;;;;;;;;;;;;;;;23.02;41.95;101345.63;103775;1287;62405;-78
2024/04/14 11:21:42;;;;;;;;;;;;;;;23.03;41.99;101342.53;103692;1286;62188;-78
2024/04/14 11:24:11;;;;;;;;;;;;;;;23.03;42.10;101345.93;103563;1286;62177;-79
2024/04/14 11:26:45;;;;;;;;;;;;;;;23.03;42.03;101344.84;103788;1286;75232;-78
2024/04/14 11:29:11;;;;;;;;;;;;;;;23.04;41.88;101338.34;103801;1286;63777;-78
2024/04/14 11:31:37;;;;;;;;;;;;;;;23.04;42.01;101335.80;103656;1286;62120;-78
2024/04/14 11:34:03;;;;;;;;;;;;;;;23.04;42.01;101335.28;103900;1291;62275;-78
2024/04/14 11:36:34;;;;;;;;;;;;;;;23.04;41.98;101331.51;103758;1290;62193;-78
2024/04/14 11:39:01;;;;;;;;;;;;;;;23.04;42.02;101325.55;103478;1293;63311;-78
2024/04/14 11:41:27;;;;;;;;;;;;;;;23.04;41.81;101319.62;103714;1286;62098;-78
2024/04/14 11:43:52;;;;;;;;;;;;;;;23.05;42.00;101319.39;103786;1286;62202;-78
2024/04/14 11:46:18;;;;;;;;;;;;;;;23.05;41.89;101306.30;103716;1286;62126;-78
2024/04/14 11:48:44;;;;;;;;;;;;;;;23.05;41.90;101300.88;103951;1286;62213;-79
2024/04/14 11:51:10;;;;;;;;;;;;;;;23.06;41.96;101298.48;103790;1291;62188;-79
2024/04/14 11:53:36;;;;;;;;;;;;;;;23.06;41.90;101297.93;103697;1286;62161;-79
2024/04/14 11:56:02;;;;;;;;;;;;;;;23.07;41.92;101292.36;103697;1286;63450;-78
2024/04/14 11:58:28;;;;;;;;;;;;;;;23.07;41.88;101287.28;103898;1286;62185;-79
2024/04/14 12:00:54;;;;;;;;;;;;;;;23.08;41.88;101289.05;103643;1286;62196;-79
2024/04/14 12:03:19;;;;;;;;;;;;;;;23.08;41.93;101278.77;103760;1285;62200;-76
2024/04/14 12:05:45;;;;;;;;;;;;;;;23.08;41.84;101282.38;103814;1286;62137;-77
2024/04/14 12:08:10;;;;;;;;;;;;;;;23.09;41.89;101277.11;103734;1290;72530;-77
2024/04/14 12:10:36;;;;;;;;;;;;;;;23.09;41.78;101274.08;103700;1286;62290;-78
2024/04/14 12:13:02;;;;;;;;;;;;;;;23.09;41.79;101268.48;103738;1290;62202;-78
2024/04/14 12:15:28;;;;;;;;;;;;;;;23.09;41.83;101263.64;103721;1286;62190;-78
2024/04/14 12:17:53;;;;;;;;;;;;;;;23.09;41.70;101261.46;103679;1290;62197;-78
2024/04/14 12:20:19;;;;;;;;;;;;;;;23.09;41.78;101258.07;103331;1286;62238;-78